sensor_id;sensor_type;location;lat;lon;timestamp;P1;durP1;ratioP1;P2;durP2;ratioP2
8225;SDS011;4154;48.810;9.012;2022-08-19T00:01:32;13.38;;;12.07;;
8225;SDS011;4154;48.810;9.012;2022-08-19T00:04:02;13.68;;;12.30;;
8225;SDS011;4154;48.810;9.012;2022-08-19T00:06:31;15.63;;;13.88;;
8225;SDS011;4154;48.810;9.012;2022-08-19T00:09:00;14.05;;;12.65;;
8225;SDS011;4154;48.810;9.012;2022-08-19T00:11:27;13.43;;;12.23;;
8225;SDS011;4154;48.810;9.012;2022-08-19T00:13:54;13.38;;;12.07;;
8225;SDS011;4154;48.810;9.012;2022-08-19T00:16:21;13.95;;;12.65;;
8225;SDS011;4154;48.810;9.012;2022-08-19T00:18:48;14.23;;;12.93;;
8225;SDS011;4154;48.810;9.012;2022-08-19T00:21:15;14.48;;;13.02;;
8225;SDS011;4154;48.810;9.012;2022-08-19T00:23:42;13.57;;;12.30;;
8225;SDS011;4154;48.810;9.012;2022-08-19T00:26:08;15.23;;;13.57;;
8225;SDS011;4154;48.810;9.012;2022-08-19T00:28:35;13.95;;;12.75;;
8225;SDS011;4154;48.810;9.012;2022-08-19T00:31:06;14.82;;;13.40;;
8225;SDS011;4154;48.810;9.012;2022-08-19T00:33:33;14.80;;;13.13;;
8225;SDS011;4154;48.810;9.012;2022-08-19T00:36:00;15.07;;;13.68;;
8225;SDS011;4154;48.810;9.012;2022-08-19T00:38:32;14.02;;;12.63;;
8225;SDS011;4154;48.810;9.012;2022-08-19T00:41:00;14.68;;;13.23;;
8225;SDS011;4154;48.810;9.012;2022-08-19T00:43:27;15.20;;;13.80;;
8225;SDS011;4154;48.810;9.012;2022-08-19T00:45:56;14.20;;;12.77;;
8225;SDS011;4154;48.810;9.012;2022-08-19T00:48:22;15.10;;;13.50;;
8225;SDS011;4154;48.810;9.012;2022-08-19T00:50:49;14.38;;;12.98;;
8225;SDS011;4154;48.810;9.012;2022-08-19T00:53:19;15.20;;;13.75;;
8225;SDS011;4154;48.810;9.012;2022-08-19T00:55:51;14.88;;;13.48;;
8225;SDS011;4154;48.810;9.012;2022-08-19T00:58:24;15.50;;;13.98;;
8225;SDS011;4154;48.810;9.012;2022-08-19T01:00:55;15.82;;;14.10;;
8225;SDS011;4154;48.810;9.012;2022-08-19T01:03:22;15.02;;;13.52;;
8225;SDS011;4154;48.810;9.012;2022-08-19T01:05:49;15.27;;;13.77;;
8225;SDS011;4154;48.810;9.012;2022-08-19T01:08:18;15.23;;;13.77;;
8225;SDS011;4154;48.810;9.012;2022-08-19T01:10:46;15.93;;;14.32;;
8225;SDS011;4154;48.810;9.012;2022-08-19T01:13:23;16.33;;;13.75;;
8225;SDS011;4154;48.810;9.012;2022-08-19T01:16:00;16.75;;;14.77;;
8225;SDS011;4154;48.810;9.012;2022-08-19T01:18:35;15.90;;;14.30;;
8225;SDS011;4154;48.810;9.012;2022-08-19T01:21:08;17.45;;;14.85;;
8225;SDS011;4154;48.810;9.012;2022-08-19T01:23:43;16.65;;;14.95;;
8225;SDS011;4154;48.810;9.012;2022-08-19T01:26:20;15.98;;;14.48;;
8225;SDS011;4154;48.810;9.012;2022-08-19T01:28:50;17.08;;;15.38;;
8225;SDS011;4154;48.810;9.012;2022-08-19T01:31:21;18.42;;;16.13;;
8225;SDS011;4154;48.810;9.012;2022-08-19T01:33:51;18.35;;;16.55;;
8225;SDS011;4154;48.810;9.012;2022-08-19T01:36:28;18.35;;;16.55;;
8225;SDS011;4154;48.810;9.012;2022-08-19T01:39:07;17.83;;;16.02;;
8225;SDS011;4154;48.810;9.012;2022-08-19T01:41:37;17.50;;;15.80;;
8225;SDS011;4154;48.810;9.012;2022-08-19T01:44:04;18.17;;;16.42;;
8225;SDS011;4154;48.810;9.012;2022-08-19T01:46:32;16.90;;;15.30;;
8225;SDS011;4154;48.810;9.012;2022-08-19T01:48:59;19.20;;;16.20;;
8225;SDS011;4154;48.810;9.012;2022-08-19T01:51:27;17.95;;;16.17;;
8225;SDS011;4154;48.810;9.012;2022-08-19T01:53:55;18.05;;;16.17;;
8225;SDS011;4154;48.810;9.012;2022-08-19T01:56:22;18.23;;;16.42;;
8225;SDS011;4154;48.810;9.012;2022-08-19T01:58:57;19.67;;;17.70;;
8225;SDS011;4154;48.810;9.012;2022-08-19T02:01:27;18.98;;;16.98;;
8225;SDS011;4154;48.810;9.012;2022-08-19T02:03:56;18.65;;;16.55;;
8225;SDS011;4154;48.810;9.012;2022-08-19T02:06:23;18.20;;;16.40;;
8225;SDS011;4154;48.810;9.012;2022-08-19T02:08:49;18.92;;;16.92;;
8225;SDS011;4154;48.810;9.012;2022-08-19T02:11:20;18.92;;;16.90;;
8225;SDS011;4154;48.810;9.012;2022-08-19T02:13:51;19.60;;;17.60;;
8225;SDS011;4154;48.810;9.012;2022-08-19T02:16:19;19.30;;;17.30;;
8225;SDS011;4154;48.810;9.012;2022-08-19T02:18:46;19.50;;;17.50;;
8225;SDS011;4154;48.810;9.012;2022-08-19T02:21:14;19.83;;;17.17;;
8225;SDS011;4154;48.810;9.012;2022-08-19T02:23:45;19.98;;;17.98;;
8225;SDS011;4154;48.810;9.012;2022-08-19T02:26:11;18.98;;;17.08;;
8225;SDS011;4154;48.810;9.012;2022-08-19T02:28:38;20.08;;;18.05;;
8225;SDS011;4154;48.810;9.012;2022-08-19T02:31:08;20.75;;;18.65;;
8225;SDS011;4154;48.810;9.012;2022-08-19T02:33:40;20.27;;;17.73;;
8225;SDS011;4154;48.810;9.012;2022-08-19T02:36:06;20.52;;;18.35;;
8225;SDS011;4154;48.810;9.012;2022-08-19T02:38:35;19.75;;;17.55;;
8225;SDS011;4154;48.810;9.012;2022-08-19T02:41:03;21.58;;;19.35;;
8225;SDS011;4154;48.810;9.012;2022-08-19T02:43:36;20.38;;;18.30;;
8225;SDS011;4154;48.810;9.012;2022-08-19T02:46:15;20.15;;;18.13;;
8225;SDS011;4154;48.810;9.012;2022-08-19T02:48:49;19.35;;;17.45;;
8225;SDS011;4154;48.810;9.012;2022-08-19T02:51:19;20.08;;;18.17;;
8225;SDS011;4154;48.810;9.012;2022-08-19T02:53:51;20.95;;;18.73;;
8225;SDS011;4154;48.810;9.012;2022-08-19T02:56:17;19.00;;;16.95;;
8225;SDS011;4154;48.810;9.012;2022-08-19T02:58:46;20.27;;;17.23;;
8225;SDS011;4154;48.810;9.012;2022-08-19T03:01:31;19.55;;;17.58;;
8225;SDS011;4154;48.810;9.012;2022-08-19T03:03:59;20.25;;;18.17;;
8225;SDS011;4154;48.810;9.012;2022-08-19T03:06:28;20.17;;;18.25;;
8225;SDS011;4154;48.810;9.012;2022-08-19T03:08:55;19.60;;;17.70;;
8225;SDS011;4154;48.810;9.012;2022-08-19T03:13:54;20.42;;;18.42;;
8225;SDS011;4154;48.810;9.012;2022-08-19T03:16:21;21.02;;;19.02;;
8225;SDS011;4154;48.810;9.012;2022-08-19T03:18:50;20.70;;;18.60;;
8225;SDS011;4154;48.810;9.012;2022-08-19T03:21:18;21.05;;;18.95;;
8225;SDS011;4154;48.810;9.012;2022-08-19T03:23:48;21.38;;;19.08;;
8225;SDS011;4154;48.810;9.012;2022-08-19T03:26:15;20.25;;;18.08;;
8225;SDS011;4154;48.810;9.012;2022-08-19T03:28:42;21.65;;;19.42;;
8225;SDS011;4154;48.810;9.012;2022-08-19T03:31:11;20.98;;;18.92;;
8225;SDS011;4154;48.810;9.012;2022-08-19T03:33:39;19.90;;;18.00;;
8225;SDS011;4154;48.810;9.012;2022-08-19T03:36:13;21.55;;;19.42;;
8225;SDS011;4154;48.810;9.012;2022-08-19T03:38:43;21.52;;;19.27;;
8225;SDS011;4154;48.810;9.012;2022-08-19T03:41:24;20.50;;;18.30;;
8225;SDS011;4154;48.810;9.012;2022-08-19T03:43:56;21.52;;;19.38;;
8225;SDS011;4154;48.810;9.012;2022-08-19T03:46:29;22.63;;;20.42;;
8225;SDS011;4154;48.810;9.012;2022-08-19T03:48:59;22.60;;;20.20;;
8225;SDS011;4154;48.810;9.012;2022-08-19T03:51:34;22.25;;;19.83;;
8225;SDS011;4154;48.810;9.012;2022-08-19T03:54:05;21.55;;;19.45;;
8225;SDS011;4154;48.810;9.012;2022-08-19T03:56:37;22.13;;;19.92;;
8225;SDS011;4154;48.810;9.012;2022-08-19T03:59:05;22.60;;;20.30;;
8225;SDS011;4154;48.810;9.012;2022-08-19T04:01:36;22.33;;;20.10;;
8225;SDS011;4154;48.810;9.012;2022-08-19T04:04:02;22.38;;;19.58;;
8225;SDS011;4154;48.810;9.012;2022-08-19T04:06:30;21.17;;;19.08;;
8225;SDS011;4154;48.810;9.012;2022-08-19T04:09:01;23.42;;;20.95;;
8225;SDS011;4154;48.810;9.012;2022-08-19T04:11:33;21.40;;;19.20;;
8225;SDS011;4154;48.810;9.012;2022-08-19T04:14:06;22.73;;;20.33;;
8225;SDS011;4154;48.810;9.012;2022-08-19T04:16:38;22.15;;;19.95;;
8225;SDS011;4154;48.810;9.012;2022-08-19T04:19:04;21.92;;;19.60;;
8225;SDS011;4154;48.810;9.012;2022-08-19T04:21:31;23.30;;;21.00;;
8225;SDS011;4154;48.810;9.012;2022-08-19T04:23:58;21.70;;;19.52;;
8225;SDS011;4154;48.810;9.012;2022-08-19T04:26:27;22.45;;;20.35;;
8225;SDS011;4154;48.810;9.012;2022-08-19T04:28:57;21.38;;;19.27;;
8225;SDS011;4154;48.810;9.012;2022-08-19T04:31:26;22.20;;;20.00;;
8225;SDS011;4154;48.810;9.012;2022-08-19T04:33:55;22.92;;;20.48;;
8225;SDS011;4154;48.810;9.012;2022-08-19T04:36:24;23.08;;;20.77;;
8225;SDS011;4154;48.810;9.012;2022-08-19T04:38:57;21.15;;;19.15;;
8225;SDS011;4154;48.810;9.012;2022-08-19T04:41:25;22.92;;;20.73;;
8225;SDS011;4154;48.810;9.012;2022-08-19T04:44:11;22.38;;;20.15;;
8225;SDS011;4154;48.810;9.012;2022-08-19T04:46:38;23.90;;;21.55;;
8225;SDS011;4154;48.810;9.012;2022-08-19T04:49:05;23.35;;;20.92;;
8225;SDS011;4154;48.810;9.012;2022-08-19T04:51:32;24.25;;;21.85;;
8225;SDS011;4154;48.810;9.012;2022-08-19T04:54:00;22.85;;;20.55;;
8225;SDS011;4154;48.810;9.012;2022-08-19T04:56:27;21.67;;;19.48;;
8225;SDS011;4154;48.810;9.012;2022-08-19T04:58:54;23.98;;;21.60;;
8225;SDS011;4154;48.810;9.012;2022-08-19T05:01:26;23.60;;;21.27;;
8225;SDS011;4154;48.810;9.012;2022-08-19T05:03:57;23.23;;;20.92;;
8225;SDS011;4154;48.810;9.012;2022-08-19T05:06:25;23.50;;;21.13;;
8225;SDS011;4154;48.810;9.012;2022-08-19T05:08:52;23.55;;;21.15;;
8225;SDS011;4154;48.810;9.012;2022-08-19T05:11:19;24.67;;;22.15;;
8225;SDS011;4154;48.810;9.012;2022-08-19T05:13:50;22.90;;;20.60;;
8225;SDS011;4154;48.810;9.012;2022-08-19T05:16:18;23.08;;;20.85;;
8225;SDS011;4154;48.810;9.012;2022-08-19T05:18:47;23.65;;;21.35;;
8225;SDS011;4154;48.810;9.012;2022-08-19T05:21:32;23.98;;;21.48;;
8225;SDS011;4154;48.810;9.012;2022-08-19T05:24:19;22.60;;;20.33;;
8225;SDS011;4154;48.810;9.012;2022-08-19T05:26:47;23.73;;;21.02;;
8225;SDS011;4154;48.810;9.012;2022-08-19T05:29:17;23.83;;;21.35;;
8225;SDS011;4154;48.810;9.012;2022-08-19T05:31:46;23.70;;;21.20;;
8225;SDS011;4154;48.810;9.012;2022-08-19T05:34:14;24.10;;;21.70;;
8225;SDS011;4154;48.810;9.012;2022-08-19T05:36:43;22.17;;;19.98;;
8225;SDS011;4154;48.810;9.012;2022-08-19T05:39:14;22.73;;;20.42;;
8225;SDS011;4154;48.810;9.012;2022-08-19T05:41:50;22.23;;;20.08;;
8225;SDS011;4154;48.810;9.012;2022-08-19T05:44:22;22.20;;;20.02;;
8225;SDS011;4154;48.810;9.012;2022-08-19T05:46:52;23.00;;;20.63;;
8225;SDS011;4154;48.810;9.012;2022-08-19T05:49:19;22.10;;;19.88;;
8225;SDS011;4154;48.810;9.012;2022-08-19T05:51:47;22.65;;;20.48;;
8225;SDS011;4154;48.810;9.012;2022-08-19T05:54:15;22.35;;;20.15;;
8225;SDS011;4154;48.810;9.012;2022-08-19T05:56:41;23.25;;;21.08;;
8225;SDS011;4154;48.810;9.012;2022-08-19T05:59:08;23.67;;;21.38;;
8225;SDS011;4154;48.810;9.012;2022-08-19T06:01:39;22.08;;;19.88;;
8225;SDS011;4154;48.810;9.012;2022-08-19T06:04:10;22.58;;;20.35;;
8225;SDS011;4154;48.810;9.012;2022-08-19T06:06:40;23.67;;;20.95;;
8225;SDS011;4154;48.810;9.012;2022-08-19T06:09:07;22.42;;;20.02;;
8225;SDS011;4154;48.810;9.012;2022-08-19T06:11:39;23.35;;;21.05;;
8225;SDS011;4154;48.810;9.012;2022-08-19T06:14:10;22.48;;;20.20;;
8225;SDS011;4154;48.810;9.012;2022-08-19T06:16:41;24.00;;;21.63;;
8225;SDS011;4154;48.810;9.012;2022-08-19T06:19:08;22.75;;;20.20;;
8225;SDS011;4154;48.810;9.012;2022-08-19T06:21:40;23.90;;;21.67;;
8225;SDS011;4154;48.810;9.012;2022-08-19T06:24:09;23.98;;;21.58;;
8225;SDS011;4154;48.810;9.012;2022-08-19T06:26:38;22.23;;;20.05;;
8225;SDS011;4154;48.810;9.012;2022-08-19T06:29:07;21.55;;;19.45;;
8225;SDS011;4154;48.810;9.012;2022-08-19T06:31:35;22.42;;;20.23;;
8225;SDS011;4154;48.810;9.012;2022-08-19T06:34:05;22.95;;;20.65;;
8225;SDS011;4154;48.810;9.012;2022-08-19T06:36:35;22.10;;;19.92;;
8225;SDS011;4154;48.810;9.012;2022-08-19T06:39:17;21.48;;;19.23;;
8225;SDS011;4154;48.810;9.012;2022-08-19T06:41:50;20.58;;;18.67;;
8225;SDS011;4154;48.810;9.012;2022-08-19T06:44:20;21.42;;;19.42;;
8225;SDS011;4154;48.810;9.012;2022-08-19T06:46:48;22.58;;;20.23;;
8225;SDS011;4154;48.810;9.012;2022-08-19T06:49:14;21.75;;;19.55;;
8225;SDS011;4154;48.810;9.012;2022-08-19T06:51:41;21.05;;;18.92;;
8225;SDS011;4154;48.810;9.012;2022-08-19T06:54:09;21.42;;;19.42;;
8225;SDS011;4154;48.810;9.012;2022-08-19T06:56:35;20.40;;;18.23;;
8225;SDS011;4154;48.810;9.012;2022-08-19T06:59:08;20.45;;;18.23;;
8225;SDS011;4154;48.810;9.012;2022-08-19T07:01:37;20.42;;;18.45;;
8225;SDS011;4154;48.810;9.012;2022-08-19T07:04:07;20.50;;;18.40;;
8225;SDS011;4154;48.810;9.012;2022-08-19T07:06:34;19.48;;;17.63;;
8225;SDS011;4154;48.810;9.012;2022-08-19T07:09:02;21.80;;;19.05;;
8225;SDS011;4154;48.810;9.012;2022-08-19T07:11:33;21.50;;;19.45;;
8225;SDS011;4154;48.810;9.012;2022-08-19T07:14:00;20.35;;;18.38;;
8225;SDS011;4154;48.810;9.012;2022-08-19T07:16:26;22.10;;;19.90;;
8225;SDS011;4154;48.810;9.012;2022-08-19T07:18:53;21.77;;;19.52;;
8225;SDS011;4154;48.810;9.012;2022-08-19T07:21:25;20.23;;;18.25;;
8225;SDS011;4154;48.810;9.012;2022-08-19T07:23:53;20.38;;;18.38;;
8225;SDS011;4154;48.810;9.012;2022-08-19T07:26:23;21.40;;;19.40;;
8225;SDS011;4154;48.810;9.012;2022-08-19T07:28:54;19.73;;;17.83;;
8225;SDS011;4154;48.810;9.012;2022-08-19T07:31:23;19.10;;;17.20;;
8225;SDS011;4154;48.810;9.012;2022-08-19T07:33:52;20.05;;;18.15;;
8225;SDS011;4154;48.810;9.012;2022-08-19T07:36:21;19.48;;;17.52;;
8225;SDS011;4154;48.810;9.012;2022-08-19T07:38:57;20.02;;;17.88;;
8225;SDS011;4154;48.810;9.012;2022-08-19T07:41:27;18.13;;;16.42;;
8225;SDS011;4154;48.810;9.012;2022-08-19T07:43:55;18.88;;;17.02;;
8225;SDS011;4154;48.810;9.012;2022-08-19T07:46:23;19.10;;;17.30;;
8225;SDS011;4154;48.810;9.012;2022-08-19T07:48:49;19.50;;;17.50;;
8225;SDS011;4154;48.810;9.012;2022-08-19T07:51:19;18.33;;;16.52;;
8225;SDS011;4154;48.810;9.012;2022-08-19T07:53:48;17.95;;;16.25;;
8225;SDS011;4154;48.810;9.012;2022-08-19T07:56:18;18.73;;;16.88;;
8225;SDS011;4154;48.810;9.012;2022-08-19T07:58:47;19.13;;;17.27;;
8225;SDS011;4154;48.810;9.012;2022-08-19T08:01:16;18.25;;;16.65;;
8225;SDS011;4154;48.810;9.012;2022-08-19T08:03:46;18.95;;;17.13;;
8225;SDS011;4154;48.810;9.012;2022-08-19T08:06:35;19.10;;;17.30;;
8225;SDS011;4154;48.810;9.012;2022-08-19T08:09:25;19.33;;;17.33;;
8225;SDS011;4154;48.810;9.012;2022-08-19T08:11:59;19.17;;;17.25;;
8225;SDS011;4154;48.810;9.012;2022-08-19T08:14:39;19.95;;;17.85;;
8225;SDS011;4154;48.810;9.012;2022-08-19T08:17:12;19.73;;;17.80;;
8225;SDS011;4154;48.810;9.012;2022-08-19T08:19:41;18.67;;;16.98;;
8225;SDS011;4154;48.810;9.012;2022-08-19T08:22:09;18.67;;;16.77;;
8225;SDS011;4154;48.810;9.012;2022-08-19T08:25:00;18.08;;;16.27;;
8225;SDS011;4154;48.810;9.012;2022-08-19T08:27:35;18.90;;;16.95;;
8225;SDS011;4154;48.810;9.012;2022-08-19T08:30:05;19.92;;;18.02;;
8225;SDS011;4154;48.810;9.012;2022-08-19T08:32:34;18.75;;;16.95;;
8225;SDS011;4154;48.810;9.012;2022-08-19T08:35:02;18.02;;;16.35;;
8225;SDS011;4154;48.810;9.012;2022-08-19T08:37:33;17.55;;;15.95;;
8225;SDS011;4154;48.810;9.012;2022-08-19T08:40:02;18.10;;;16.30;;
8225;SDS011;4154;48.810;9.012;2022-08-19T08:42:35;18.02;;;16.20;;
8225;SDS011;4154;48.810;9.012;2022-08-19T08:45:16;19.60;;;17.70;;
8225;SDS011;4154;48.810;9.012;2022-08-19T08:47:45;20.23;;;18.23;;
8225;SDS011;4154;48.810;9.012;2022-08-19T08:53:06;19.45;;;17.48;;
8225;SDS011;4154;48.810;9.012;2022-08-19T08:55:35;17.23;;;15.63;;
8225;SDS011;4154;48.810;9.012;2022-08-19T08:58:06;18.33;;;16.52;;
8225;SDS011;4154;48.810;9.012;2022-08-19T09:00:51;18.48;;;16.75;;
8225;SDS011;4154;48.810;9.012;2022-08-19T09:03:21;19.20;;;17.40;;
8225;SDS011;4154;48.810;9.012;2022-08-19T09:05:59;16.98;;;15.30;;
8225;SDS011;4154;48.810;9.012;2022-08-19T09:17:07;18.95;;;17.10;;
8225;SDS011;4154;48.810;9.012;2022-08-19T09:19:36;18.02;;;16.17;;
8225;SDS011;4154;48.810;9.012;2022-08-19T09:22:19;16.77;;;15.15;;
8225;SDS011;4154;48.810;9.012;2022-08-19T09:24:49;18.63;;;16.75;;
8225;SDS011;4154;48.810;9.012;2022-08-19T09:27:17;17.10;;;15.52;;
8225;SDS011;4154;48.810;9.012;2022-08-19T09:29:45;17.48;;;15.88;;
8225;SDS011;4154;48.810;9.012;2022-08-19T09:32:13;17.20;;;15.63;;
8225;SDS011;4154;48.810;9.012;2022-08-19T09:34:40;16.75;;;14.95;;
8225;SDS011;4154;48.810;9.012;2022-08-19T09:37:06;16.05;;;14.45;;
8225;SDS011;4154;48.810;9.012;2022-08-19T09:39:32;17.73;;;16.08;;
8225;SDS011;4154;48.810;9.012;2022-08-19T09:41:58;17.17;;;15.57;;
8225;SDS011;4154;48.810;9.012;2022-08-19T09:44:24;16.15;;;14.50;;
8225;SDS011;4154;48.810;9.012;2022-08-19T09:46:50;16.02;;;14.40;;
8225;SDS011;4154;48.810;9.012;2022-08-19T09:49:17;15.25;;;13.85;;
8225;SDS011;4154;48.810;9.012;2022-08-19T09:51:49;15.20;;;13.60;;
8225;SDS011;4154;48.810;9.012;2022-08-19T09:54:17;13.93;;;12.63;;
8225;SDS011;4154;48.810;9.012;2022-08-19T09:56:44;15.55;;;13.90;;
8225;SDS011;4154;48.810;9.012;2022-08-19T09:59:10;15.05;;;13.45;;
8225;SDS011;4154;48.810;9.012;2022-08-19T10:01:37;13.73;;;12.40;;
8225;SDS011;4154;48.810;9.012;2022-08-19T10:04:03;13.40;;;12.10;;
8225;SDS011;4154;48.810;9.012;2022-08-19T10:06:34;15.18;;;13.07;;
8225;SDS011;4154;48.810;9.012;2022-08-19T10:09:03;14.13;;;12.73;;
8225;SDS011;4154;48.810;9.012;2022-08-19T10:11:32;14.50;;;12.85;;
8225;SDS011;4154;48.810;9.012;2022-08-19T10:14:00;13.70;;;12.30;;
8225;SDS011;4154;48.810;9.012;2022-08-19T10:16:27;12.82;;;11.57;;
8225;SDS011;4154;48.810;9.012;2022-08-19T10:18:53;12.77;;;11.48;;
8225;SDS011;4154;48.810;9.012;2022-08-19T10:21:22;13.10;;;11.82;;
8225;SDS011;4154;48.810;9.012;2022-08-19T10:23:52;12.60;;;11.50;;
8225;SDS011;4154;48.810;9.012;2022-08-19T10:26:23;14.10;;;12.70;;
8225;SDS011;4154;48.810;9.012;2022-08-19T10:28:55;12.05;;;11.00;;
8225;SDS011;4154;48.810;9.012;2022-08-19T10:31:24;11.80;;;10.60;;
8225;SDS011;4154;48.810;9.012;2022-08-19T10:33:53;11.95;;;10.85;;
8225;SDS011;4154;48.810;9.012;2022-08-19T10:36:25;11.80;;;10.70;;
8225;SDS011;4154;48.810;9.012;2022-08-19T10:38:59;12.18;;;10.90;;
8225;SDS011;4154;48.810;9.012;2022-08-19T10:41:29;13.15;;;11.23;;
8225;SDS011;4154;48.810;9.012;2022-08-19T10:43:58;12.18;;;11.02;;
8225;SDS011;4154;48.810;9.012;2022-08-19T10:46:31;11.75;;;10.65;;
8225;SDS011;4154;48.810;9.012;2022-08-19T10:49:01;10.70;;;9.80;;
8225;SDS011;4154;48.810;9.012;2022-08-19T10:51:29;10.73;;;9.77;;
8225;SDS011;4154;48.810;9.012;2022-08-19T10:54:15;11.38;;;10.13;;
8225;SDS011;4154;48.810;9.012;2022-08-19T10:56:42;11.35;;;10.30;;
8225;SDS011;4154;48.810;9.012;2022-08-19T10:59:21;11.07;;;9.60;;
8225;SDS011;4154;48.810;9.012;2022-08-19T11:01:54;11.55;;;10.38;;
8225;SDS011;4154;48.810;9.012;2022-08-19T11:04:26;11.00;;;10.00;;
8225;SDS011;4154;48.810;9.012;2022-08-19T11:06:52;10.93;;;9.82;;
8225;SDS011;4154;48.810;9.012;2022-08-19T11:09:20;10.80;;;9.35;;
8225;SDS011;4154;48.810;9.012;2022-08-19T11:11:49;9.82;;;8.93;;
8225;SDS011;4154;48.810;9.012;2022-08-19T11:14:18;9.98;;;9.00;;
8225;SDS011;4154;48.810;9.012;2022-08-19T11:16:46;10.35;;;9.30;;
8225;SDS011;4154;48.810;9.012;2022-08-19T11:19:13;9.13;;;8.43;;
8225;SDS011;4154;48.810;9.012;2022-08-19T11:21:44;10.60;;;9.60;;
8225;SDS011;4154;48.810;9.012;2022-08-19T11:24:15;11.00;;;9.98;;
8225;SDS011;4154;48.810;9.012;2022-08-19T11:26:48;9.73;;;8.82;;
8225;SDS011;4154;48.810;9.012;2022-08-19T11:29:18;10.38;;;9.20;;
8225;SDS011;4154;48.810;9.012;2022-08-19T11:31:47;8.40;;;7.70;;
8225;SDS011;4154;48.810;9.012;2022-08-19T11:34:17;9.38;;;8.30;;
8225;SDS011;4154;48.810;9.012;2022-08-19T11:36:49;8.32;;;7.43;;
8225;SDS011;4154;48.810;9.012;2022-08-19T11:39:17;7.82;;;6.90;;
8225;SDS011;4154;48.810;9.012;2022-08-19T11:41:45;8.13;;;7.43;;
8225;SDS011;4154;48.810;9.012;2022-08-19T11:44:11;7.68;;;6.97;;
8225;SDS011;4154;48.810;9.012;2022-08-19T11:46:39;7.65;;;6.95;;
8225;SDS011;4154;48.810;9.012;2022-08-19T11:49:06;7.50;;;6.80;;
8225;SDS011;4154;48.810;9.012;2022-08-19T11:51:34;7.75;;;6.95;;
8225;SDS011;4154;48.810;9.012;2022-08-19T11:54:00;7.18;;;6.53;;
8225;SDS011;4154;48.810;9.012;2022-08-19T11:56:27;6.75;;;6.15;;
8225;SDS011;4154;48.810;9.012;2022-08-19T11:58:53;6.93;;;6.22;;
8225;SDS011;4154;48.810;9.012;2022-08-19T12:01:22;6.80;;;6.30;;
8225;SDS011;4154;48.810;9.012;2022-08-19T12:03:51;6.60;;;5.90;;
8225;SDS011;4154;48.810;9.012;2022-08-19T12:06:20;7.40;;;6.82;;
8225;SDS011;4154;48.810;9.012;2022-08-19T12:08:58;6.63;;;6.10;;
8225;SDS011;4154;48.810;9.012;2022-08-19T12:11:29;6.30;;;5.80;;
8225;SDS011;4154;48.810;9.012;2022-08-19T12:13:56;6.55;;;6.05;;
8225;SDS011;4154;48.810;9.012;2022-08-19T12:16:24;6.30;;;5.75;;
8225;SDS011;4154;48.810;9.012;2022-08-19T12:18:54;6.68;;;6.00;;
8225;SDS011;4154;48.810;9.012;2022-08-19T12:21:22;7.70;;;6.90;;
8225;SDS011;4154;48.810;9.012;2022-08-19T12:23:53;6.85;;;6.20;;
8225;SDS011;4154;48.810;9.012;2022-08-19T12:26:21;6.43;;;5.82;;
8225;SDS011;4154;48.810;9.012;2022-08-19T12:28:48;6.63;;;6.03;;
8225;SDS011;4154;48.810;9.012;2022-08-19T12:31:15;6.72;;;6.03;;
8225;SDS011;4154;48.810;9.012;2022-08-19T12:33:42;6.45;;;5.85;;
8225;SDS011;4154;48.810;9.012;2022-08-19T12:36:09;7.38;;;5.43;;
8225;SDS011;4154;48.810;9.012;2022-08-19T12:38:37;5.88;;;5.47;;
8225;SDS011;4154;48.810;9.012;2022-08-19T12:41:04;5.70;;;5.20;;
8225;SDS011;4154;48.810;9.012;2022-08-19T12:43:35;6.28;;;5.72;;
8225;SDS011;4154;48.810;9.012;2022-08-19T12:46:03;7.20;;;6.60;;
8225;SDS011;4154;48.810;9.012;2022-08-19T12:48:31;8.13;;;6.95;;
8225;SDS011;4154;48.810;9.012;2022-08-19T12:50:58;7.38;;;6.68;;
8225;SDS011;4154;48.810;9.012;2022-08-19T12:53:25;8.80;;;6.35;;
8225;SDS011;4154;48.810;9.012;2022-08-19T12:55:54;7.68;;;6.45;;
8225;SDS011;4154;48.810;9.012;2022-08-19T12:58:22;7.35;;;6.65;;
8225;SDS011;4154;48.810;9.012;2022-08-19T13:00:48;7.13;;;6.40;;
8225;SDS011;4154;48.810;9.012;2022-08-19T13:03:14;7.03;;;6.43;;
8225;SDS011;4154;48.810;9.012;2022-08-19T13:05:40;6.90;;;6.30;;
8225;SDS011;4154;48.810;9.012;2022-08-19T13:08:06;6.50;;;6.00;;
8225;SDS011;4154;48.810;9.012;2022-08-19T13:10:34;6.38;;;5.88;;
8225;SDS011;4154;48.810;9.012;2022-08-19T13:13:01;6.38;;;5.80;;
8225;SDS011;4154;48.810;9.012;2022-08-19T13:15:33;7.15;;;6.55;;
8225;SDS011;4154;48.810;9.012;2022-08-19T13:18:05;6.60;;;6.07;;
8225;SDS011;4154;48.810;9.012;2022-08-19T13:20:34;6.35;;;5.88;;
8225;SDS011;4154;48.810;9.012;2022-08-19T13:23:02;7.20;;;6.60;;
8225;SDS011;4154;48.810;9.012;2022-08-19T13:25:29;7.30;;;6.70;;
8225;SDS011;4154;48.810;9.012;2022-08-19T13:27:55;6.63;;;6.13;;
8225;SDS011;4154;48.810;9.012;2022-08-19T13:30:22;6.70;;;6.10;;
8225;SDS011;4154;48.810;9.012;2022-08-19T13:33:07;7.57;;;6.55;;
8225;SDS011;4154;48.810;9.012;2022-08-19T13:35:53;7.78;;;6.97;;
8225;SDS011;4154;48.810;9.012;2022-08-19T13:38:25;7.50;;;6.90;;
8225;SDS011;4154;48.810;9.012;2022-08-19T13:40:52;7.13;;;6.53;;
8225;SDS011;4154;48.810;9.012;2022-08-19T13:43:21;6.90;;;6.22;;
8225;SDS011;4154;48.810;9.012;2022-08-19T13:45:51;7.25;;;6.65;;
8225;SDS011;4154;48.810;9.012;2022-08-19T13:48:20;7.25;;;6.50;;
8225;SDS011;4154;48.810;9.012;2022-08-19T13:50:48;7.07;;;6.47;;
8225;SDS011;4154;48.810;9.012;2022-08-19T13:53:15;7.15;;;6.45;;
8225;SDS011;4154;48.810;9.012;2022-08-19T13:55:42;6.60;;;6.07;;
8225;SDS011;4154;48.810;9.012;2022-08-19T13:58:09;7.20;;;6.63;;
8225;SDS011;4154;48.810;9.012;2022-08-19T14:00:38;7.13;;;6.57;;
8225;SDS011;4154;48.810;9.012;2022-08-19T14:03:07;6.82;;;6.32;;
8225;SDS011;4154;48.810;9.012;2022-08-19T14:05:34;7.03;;;6.30;;
8225;SDS011;4154;48.810;9.012;2022-08-19T14:08:01;6.10;;;5.68;;
8225;SDS011;4154;48.810;9.012;2022-08-19T14:10:27;6.93;;;6.03;;
8225;SDS011;4154;48.810;9.012;2022-08-19T14:12:55;6.25;;;5.75;;
8225;SDS011;4154;48.810;9.012;2022-08-19T14:15:26;6.82;;;6.22;;
8225;SDS011;4154;48.810;9.012;2022-08-19T14:17:52;7.07;;;6.47;;
8225;SDS011;4154;48.810;9.012;2022-08-19T14:20:19;6.72;;;6.13;;
8225;SDS011;4154;48.810;9.012;2022-08-19T14:22:46;6.32;;;5.85;;
8225;SDS011;4154;48.810;9.012;2022-08-19T14:25:18;6.75;;;6.25;;
8225;SDS011;4154;48.810;9.012;2022-08-19T14:27:49;7.38;;;6.88;;
8225;SDS011;4154;48.810;9.012;2022-08-19T14:30:16;7.20;;;6.60;;
8225;SDS011;4154;48.810;9.012;2022-08-19T14:32:46;6.80;;;6.30;;
8225;SDS011;4154;48.810;9.012;2022-08-19T14:35:13;7.18;;;6.53;;
8225;SDS011;4154;48.810;9.012;2022-08-19T14:37:41;7.30;;;6.80;;
8225;SDS011;4154;48.810;9.012;2022-08-19T14:40:09;7.15;;;6.65;;
8225;SDS011;4154;48.810;9.012;2022-08-19T14:42:37;6.97;;;6.55;;
8225;SDS011;4154;48.810;9.012;2022-08-19T14:45:03;7.25;;;6.60;;
8225;SDS011;4154;48.810;9.012;2022-08-19T14:47:30;7.68;;;7.03;;
8225;SDS011;4154;48.810;9.012;2022-08-19T14:49:56;7.30;;;6.80;;
8225;SDS011;4154;48.810;9.012;2022-08-19T14:52:22;7.22;;;6.65;;
8225;SDS011;4154;48.810;9.012;2022-08-19T14:54:48;7.68;;;6.97;;
8225;SDS011;4154;48.810;9.012;2022-08-19T14:57:15;7.97;;;7.25;;
8225;SDS011;4154;48.810;9.012;2022-08-19T14:59:42;7.30;;;6.70;;
8225;SDS011;4154;48.810;9.012;2022-08-19T15:02:09;7.22;;;6.72;;
8225;SDS011;4154;48.810;9.012;2022-08-19T15:04:36;7.65;;;7.00;;
8225;SDS011;4154;48.810;9.012;2022-08-19T15:07:02;7.55;;;6.95;;
8225;SDS011;4154;48.810;9.012;2022-08-19T15:09:30;7.15;;;6.65;;
8225;SDS011;4154;48.810;9.012;2022-08-19T15:11:57;7.28;;;6.68;;
8225;SDS011;4154;48.810;9.012;2022-08-19T15:14:24;7.10;;;6.57;;
8225;SDS011;4154;48.810;9.012;2022-08-19T15:16:51;6.95;;;6.45;;
8225;SDS011;4154;48.810;9.012;2022-08-19T15:19:17;7.35;;;6.68;;
8225;SDS011;4154;48.810;9.012;2022-08-19T15:21:44;6.97;;;6.47;;
8225;SDS011;4154;48.810;9.012;2022-08-19T15:24:09;7.20;;;6.50;;